Calabasas, California
Current Conditions -  °F | °C
As of 3:51 PM on Sunday 23 Nov 2014 (Local Time) from KVNY Reporting Station
Clear Clear  
Wind Chill: 73°   Ceiling: Unl
Heat Index: 73°   Visibility: 10mi
Dew Point:   Wind: 20mph
Humidity: 7%   Direction: 20°NNE
Pressure: 30.1"   Gusts: 29mph
Location:  34.16°N, 118.64°W
Report Text: KVNY 232351Z 02017G25KT 10SM CLR 23/M15 A3010 RMK AO2 PK WND 01028/2306 SLP187 T02281150 10239 20206 55002
Loading
Personal Weather Stations






























Interactive Weather Map New forecast layout! Learn more

10-Day Weather Forecast

Advertisements
Track Severe Weather on mobile